Titonka, Iowa
Current Conditions -  °F | °C
As of 2:15 PM on Sunday 21 Dec 2014 (Local Time) from KAXA Reporting Station
Haze Haze  
Wind Chill: 26°   Ceiling: 300
Heat Index: 37°   Visibility: 1mi
Dew Point: 37°   Wind: 24mph
Humidity: 100%   Direction: 180°S
Pressure: 29.73"   Gusts: NA
Location:  43.24°N, 94.04°W
Report Text: KAXA 212015Z AUTO 18021KT 1SM BR OVC003 03/03 A2973 RMK AO2
Loading
Personal Weather Stations






























Interactive Weather Map New forecast layout! Learn more

10-Day Weather Forecast

Advertisements
Track Severe Weather on mobile